Soaring Guidance
Issued by NWS Reno, NV

Home | Current Version | Previous Version | Text Only | Print | Product List | Glossary On
Versions: 1 2 3 4 5 6 7 8 9 10 11 12 13 14 15 16
000
UXUS97 KREV 281346
SRGREV

SOARING FORECAST
NATIONAL WEATHER SERVICE - RENO NV
700 AM PDT SAT MAY 28 2016

THIS SOARING FORECAST IS FOR THE EASTERN SIERRA AND WESTERN NEVADA
WITH SPECIFIC INDICES FOR THE GREATER RENO AREA.

THIS FORECAST IS PREPARED DAILY BY 700 AM AND IS NOT UPDATED.

FOR CURRENT FLIGHT CONDITIONS...FORECASTS...AND ADVISORIES...ACCESS
YOUR LOCAL BRIEFING OUTLET OR FLIGHT SERVICE STATION.

*******************************************************************
FORECASTED LOCAL INDICES FOR RENO:        TODAY     YESTERDAY
FORECASTED MAX TEMP AT RENO (DEG F).....     79          79
FORECASTED TRIGGER TEMPERATURE (DEG F)..     60          58
   EXCEEDED YESTERDAY BY 1055 AM PDT
FORECASTED MAXIMUM ALTITUDE (FT MSL)....  16300       15300
FORECASTED SOARING INDEX (FPM)..........    939         819
FORECASTED K-INDEX.........VALID 18Z....     17          20
FORECASTED K-INDEX.........VALID 00Z....     21          23
FORECASTED LIFTED INDEX....VALID 18Z....      7           4
FORECASTED LIFTED INDEX....VALID 00Z....      4           4

AFTERNOON WINDS ALOFT FORECAST
MSL (FT) WIND/TEMP
9000  9900/+09
10000 9900/+06
12000 9900/+00
14000 9901/-05
16000 9902/-10
18000 2206/-15
24000 1805/-27
30000 2119/-44
34000 2035/-54
39000 2324/-61

SLIDE MOUNTAIN DATA:
     DATE       TIME     TEMP  DEWPT   RH         WIND (MPH)
                        (F)   (F)           | DIR  SPEED GUST
2016-05-28    05:20      35    20     60    | 108   22   24
2016-05-28    05:00      35    20     60    | 109   21   24
2016-05-28    04:50      35    20     60    | 108   19   22
2016-05-28    04:30      35    20     60    | 106   19   23

RENO TAF FORECAST:
KRNO 281127Z 2812/2912 VRB03KT P6SM SCT200
     FM281900 07006KT P6SM FEW060 SCT200
     FM290000 32009KT P6SM SCT070 BKN200
     FM290600 30003KT P6SM BKN250

CARSON CITY TAF FORECAST:
KCXP 281127Z 2812/2912 VRB03KT P6SM SCT200
     FM281800 06007KT P6SM SCT050 SCT200
     FM290000 VRB05KT P6SM VCSH SCT050 BKN180
     FM290600 30003KT P6SM BKN250

OUTLOOK FOR THE RENO-CARSON CITY-MINDEN AREA:
.SUNDAY...PARTLY CLOUDY. ISOLATED SHOWERS AND THUNDERSTORMS IN
THE AFTERNOON. HIGHS 77 TO 82. LIGHT WINDS BECOMING WEST UP TO
10 MPH IN THE AFTERNOON.

SUNRISE AND SUNSET
MAY 28 2016...........SUNRISE   535 AM PDT   SUNSET   818 PM PDT
MAY 29 2016...........SUNRISE   535 AM PDT   SUNSET   819 PM PDT


USA.gov is the U.S. government's official web portal to all federal, state and local government web resources and services.